Time;durP1;ratioP1;P1;durP2;ratioP2;P2;SDS_P1;SDS_P2;PMS_P1;PMS_P2;Temp;Humidity;BMP_temperature;BMP_pressure;BME280_temperature;BME280_humidity;BME280_pressure;Samples;Min_cycle;Max_cycle;Signal;HPM_P1;HPM_P2
2023/09/27 00:00:36;;;;;;;23.00;16.23;;;;;;;;;;5114437;28;20096;-78
2023/09/27 00:03:03;;;;;;;18.75;15.88;;;;;;;;;;5101356;28;20044;-78
2023/09/27 00:05:30;;;;;;;17.40;15.52;;;;;;;;;;5114872;28;20059;-78
2023/09/27 00:07:57;;;;;;;19.92;15.82;;;;;;;;;;5114637;28;20105;-78
2023/09/27 00:10:23;;;;;;;18.45;16.40;;;;;;;;;;5114341;28;20047;-78
2023/09/27 00:12:49;;;;;;;21.00;16.10;;;;;;;;;;5113169;28;20050;-77
2023/09/27 00:15:15;;;;;;;19.10;16.90;;;;;;;;;;5114456;28;20088;-78
2023/09/27 00:17:43;;;;;;;18.65;16.63;;;;;;;;;;5114307;28;20043;-78
2023/09/27 00:20:15;;;;;;;19.55;16.83;;;;;;;;;;5114580;28;20047;-78
2023/09/27 00:22:45;;;;;;;19.58;17.05;;;;;;;;;;5105049;28;20073;-78
2023/09/27 00:25:11;;;;;;;20.80;17.27;;;;;;;;;;5096247;28;20123;-78
2023/09/27 00:27:37;;;;;;;19.45;17.35;;;;;;;;;;5114237;28;20040;-78
2023/09/27 00:30:09;;;;;;;19.48;16.58;;;;;;;;;;5113491;28;20054;-78
2023/09/27 00:32:35;;;;;;;21.13;16.45;;;;;;;;;;5113189;28;20063;-78
2023/09/27 00:35:02;;;;;;;20.27;16.23;;;;;;;;;;5114015;28;20075;-78
2023/09/27 00:37:28;;;;;;;19.42;16.98;;;;;;;;;;5104381;28;20101;-78
2023/09/27 00:39:56;;;;;;;20.10;17.20;;;;;;;;;;5109450;28;20147;-78
2023/09/27 00:42:23;;;;;;;21.05;17.20;;;;;;;;;;5113807;28;20490;-78
2023/09/27 00:44:49;;;;;;;23.35;17.83;;;;;;;;;;5113322;28;20487;-78
2023/09/27 00:47:15;;;;;;;18.85;16.88;;;;;;;;;;5113816;28;20114;-78
2023/09/27 00:49:42;;;;;;;19.73;16.35;;;;;;;;;;5113400;28;20036;-78
2023/09/27 00:52:09;;;;;;;19.10;16.88;;;;;;;;;;5113914;28;20050;-78
2023/09/27 00:54:35;;;;;;;18.20;16.23;;;;;;;;;;5113576;28;20040;-78
2023/09/27 00:57:02;;;;;;;21.15;18.08;;;;;;;;;;5113647;28;20096;-77
2023/09/27 00:59:29;;;;;;;20.17;16.90;;;;;;;;;;5111878;28;20032;-78
2023/09/27 01:01:56;;;;;;;22.42;17.42;;;;;;;;;;5113495;28;20138;-78
2023/09/27 01:04:23;;;;;;;19.30;16.35;;;;;;;;;;5112923;28;20044;-78
2023/09/27 01:06:49;;;;;;;20.77;17.45;;;;;;;;;;5113472;28;20035;-78
2023/09/27 01:09:17;;;;;;;18.92;16.40;;;;;;;;;;5126862;27;20111;-78
2023/09/27 01:11:43;;;;;;;22.02;17.52;;;;;;;;;;5113162;28;20499;-78
2023/09/27 01:14:09;;;;;;;18.98;16.58;;;;;;;;;;5112006;28;20119;-78
2023/09/27 01:16:35;;;;;;;18.67;16.45;;;;;;;;;;5101497;28;20476;-78
2023/09/27 01:19:02;;;;;;;18.92;16.27;;;;;;;;;;5111209;28;20092;-78
2023/09/27 01:21:28;;;;;;;20.95;17.30;;;;;;;;;;5113426;28;20044;-78
2023/09/27 01:23:54;;;;;;;20.77;17.13;;;;;;;;;;5112880;28;20406;-78
2023/09/27 01:26:21;;;;;;;18.80;16.48;;;;;;;;;;5112940;28;20051;-78
2023/09/27 01:28:47;;;;;;;20.67;17.23;;;;;;;;;;5107080;28;20492;-78
2023/09/27 01:31:14;;;;;;;19.63;17.23;;;;;;;;;;5105365;28;20150;-78
2023/09/27 01:33:40;;;;;;;19.63;17.25;;;;;;;;;;5112648;28;20035;-78
2023/09/27 01:36:07;;;;;;;20.67;18.35;;;;;;;;;;5112851;28;20047;-77
2023/09/27 01:38:33;;;;;;;22.60;17.77;;;;;;;;;;5112299;28;20483;-78
2023/09/27 01:40:59;;;;;;;24.17;17.90;;;;;;;;;;5111805;28;20128;-78
2023/09/27 01:43:25;;;;;;;19.98;17.02;;;;;;;;;;5115677;28;20043;-78
2023/09/27 01:45:52;;;;;;;20.95;17.88;;;;;;;;;;5119955;28;20051;-78
2023/09/27 01:48:19;;;;;;;20.27;16.80;;;;;;;;;;5118275;28;20048;-78
2023/09/27 01:50:45;;;;;;;19.90;17.13;;;;;;;;;;5107069;27;20385;-77
2023/09/27 01:53:11;;;;;;;20.52;17.10;;;;;;;;;;5118881;28;20122;-78
2023/09/27 01:55:37;;;;;;;20.35;17.85;;;;;;;;;;5119568;28;20078;-78
2023/09/27 01:58:04;;;;;;;21.42;18.02;;;;;;;;;;5119636;28;20043;-78
2023/09/27 02:00:30;;;;;;;19.60;17.45;;;;;;;;;;5119724;28;20043;-78
2023/09/27 02:02:58;;;;;;;19.17;16.73;;;;;;;;;;5118925;28;20055;-78
2023/09/27 02:05:25;;;;;;;21.73;17.95;;;;;;;;;;5119798;27;20085;-78
2023/09/27 02:07:51;;;;;;;21.25;18.33;;;;;;;;;;5119546;27;20044;-78
2023/09/27 02:10:17;;;;;;;22.25;17.65;;;;;;;;;;5119559;28;20044;-78
2023/09/27 02:12:43;;;;;;;21.55;17.73;;;;;;;;;;5119328;28;20047;-78
2023/09/27 02:15:10;;;;;;;20.50;17.88;;;;;;;;;;5119501;28;20077;-77
2023/09/27 02:17:40;;;;;;;21.40;18.02;;;;;;;;;;5119581;28;20039;-77
2023/09/27 02:20:07;;;;;;;23.20;16.63;;;;;;;;;;5119157;28;20089;-78
2023/09/27 02:22:33;;;;;;;21.25;18.15;;;;;;;;;;5119466;27;20051;-77
2023/09/27 02:24:59;;;;;;;21.88;19.15;;;;;;;;;;5117883;28;20130;-78
2023/09/27 02:27:25;;;;;;;21.35;18.17;;;;;;;;;;5111188;28;20048;-77
2023/09/27 02:29:51;;;;;;;21.20;18.40;;;;;;;;;;5114021;28;20044;-77
2023/09/27 02:32:17;;;;;;;22.92;18.27;;;;;;;;;;5119236;28;20360;-77
2023/09/27 02:34:44;;;;;;;20.80;18.60;;;;;;;;;;5119051;28;20333;-77
2023/09/27 02:37:11;;;;;;;22.60;18.95;;;;;;;;;;5119363;27;20043;-78
2023/09/27 02:39:37;;;;;;;25.02;18.90;;;;;;;;;;5118364;28;20087;-78
2023/09/27 02:42:03;;;;;;;24.38;19.92;;;;;;;;;;5118974;28;20107;-78
2023/09/27 02:44:29;;;;;;;23.00;19.65;;;;;;;;;;5118769;27;20043;-77
2023/09/27 02:46:55;;;;;;;23.33;19.05;;;;;;;;;;5118967;28;20043;-77
2023/09/27 02:49:21;;;;;;;23.23;19.27;;;;;;;;;;5118730;28;20120;-78
2023/09/27 02:51:48;;;;;;;21.92;19.48;;;;;;;;;;5119194;28;20042;-78
2023/09/27 02:54:15;;;;;;;25.23;20.40;;;;;;;;;;5118207;28;20539;-77
2023/09/27 02:56:43;;;;;;;21.85;18.85;;;;;;;;;;5115034;28;20384;-78
2023/09/27 02:59:10;;;;;;;21.70;19.40;;;;;;;;;;5115711;28;20046;-78
2023/09/27 03:01:40;;;;;;;24.10;20.10;;;;;;;;;;5107543;28;20130;-78
2023/09/27 03:04:06;;;;;;;23.95;20.52;;;;;;;;;;5110622;28;20048;-78
2023/09/27 03:06:33;;;;;;;27.70;20.98;;;;;;;;;;5115892;28;20197;-78
2023/09/27 03:08:59;;;;;;;24.35;20.48;;;;;;;;;;5114056;28;20052;-78
2023/09/27 03:11:25;;;;;;;24.50;20.73;;;;;;;;;;5115530;28;20524;-78
2023/09/27 03:13:51;;;;;;;25.17;21.25;;;;;;;;;;5115504;28;20529;-78
2023/09/27 03:16:17;;;;;;;23.98;20.63;;;;;;;;;;5115595;28;20093;-78
2023/09/27 03:18:43;;;;;;;25.23;21.38;;;;;;;;;;5115134;28;20044;-78
2023/09/27 03:21:09;;;;;;;24.70;21.35;;;;;;;;;;5115560;28;20105;-78
2023/09/27 03:23:35;;;;;;;25.75;20.75;;;;;;;;;;5115067;28;20487;-78
2023/09/27 03:26:03;;;;;;;25.38;21.23;;;;;;;;;;5115118;28;20393;-78
2023/09/27 03:28:29;;;;;;;28.02;21.85;;;;;;;;;;5115320;28;20071;-78
2023/09/27 03:30:55;;;;;;;27.10;21.73;;;;;;;;;;5115307;28;20035;-77
2023/09/27 03:33:21;;;;;;;28.08;22.17;;;;;;;;;;5114881;28;20417;-78
2023/09/27 03:35:47;;;;;;;25.52;21.25;;;;;;;;;;5115137;28;20051;-77
2023/09/27 03:38:13;;;;;;;27.00;22.95;;;;;;;;;;5115093;28;20043;-78
2023/09/27 03:40:40;;;;;;;26.25;22.05;;;;;;;;;;5115088;28;20078;-78
2023/09/27 03:43:06;;;;;;;28.67;22.48;;;;;;;;;;5098291;28;20036;-78
2023/09/27 03:45:35;;;;;;;25.65;22.30;;;;;;;;;;5104321;28;20051;-78
2023/09/27 03:48:02;;;;;;;26.80;22.55;;;;;;;;;;5111618;28;20056;-78
2023/09/27 03:50:29;;;;;;;25.92;22.33;;;;;;;;;;5105102;28;20043;-78
2023/09/27 03:52:58;;;;;;;26.75;22.52;;;;;;;;;;5114627;28;20096;-78
2023/09/27 03:55:25;;;;;;;25.88;23.08;;;;;;;;;;5114763;28;20047;-78
2023/09/27 03:57:51;;;;;;;28.27;23.08;;;;;;;;;;5114565;28;20043;-78
2023/09/27 04:00:18;;;;;;;26.40;23.52;;;;;;;;;;5114859;28;20074;-78
2023/09/27 04:02:46;;;;;;;30.45;23.75;;;;;;;;;;5114414;28;20047;-78
2023/09/27 04:05:12;;;;;;;28.25;23.83;;;;;;;;;;5113229;28;20560;-78
2023/09/27 04:07:39;;;;;;;27.95;23.50;;;;;;;;;;5112893;28;20475;-78
2023/09/27 04:10:07;;;;;;;28.08;23.95;;;;;;;;;;5114377;27;20499;-77
2023/09/27 04:12:33;;;;;;;29.42;24.58;;;;;;;;;;5112960;28;20062;-78
2023/09/27 04:15:00;;;;;;;29.05;24.30;;;;;;;;;;5114344;28;20039;-78
2023/09/27 04:17:26;;;;;;;30.42;23.88;;;;;;;;;;5114055;28;20051;-77
2023/09/27 04:19:53;;;;;;;28.30;24.00;;;;;;;;;;5114255;28;20039;-77
2023/09/27 04:22:19;;;;;;;30.98;24.80;;;;;;;;;;5113973;28;20405;-78
2023/09/27 04:24:45;;;;;;;32.22;25.05;;;;;;;;;;5114147;28;20043;-77
2023/09/27 04:27:12;;;;;;;30.27;25.20;;;;;;;;;;5114175;28;20042;-78
2023/09/27 04:29:38;;;;;;;30.95;25.10;;;;;;;;;;5114251;28;20055;-77
2023/09/27 04:32:04;;;;;;;30.98;25.05;;;;;;;;;;5113935;28;20401;-77
2023/09/27 04:34:30;;;;;;;33.20;26.70;;;;;;;;;;5114104;28;20043;-77
2023/09/27 04:36:57;;;;;;;33.53;26.60;;;;;;;;;;5108198;28;20051;-77
2023/09/27 04:39:27;;;;;;;31.88;26.55;;;;;;;;;;5093418;28;20056;-77
2023/09/27 04:41:53;;;;;;;32.00;25.88;;;;;;;;;;5113218;28;20040;-78
2023/09/27 04:44:19;;;;;;;32.35;25.83;;;;;;;;;;5113982;28;20065;-77
2023/09/27 04:46:45;;;;;;;32.70;27.27;;;;;;;;;;5107401;28;20124;-77
2023/09/27 04:49:11;;;;;;;36.17;27.20;;;;;;;;;;5106451;28;20047;-78
2023/09/27 04:51:37;;;;;;;33.00;26.98;;;;;;;;;;5113485;28;20050;-78
2023/09/27 04:54:03;;;;;;;38.50;28.13;;;;;;;;;;5113566;28;20419;-78
2023/09/27 04:56:30;;;;;;;36.63;28.20;;;;;;;;;;5113605;28;20210;-78
2023/09/27 04:59:01;;;;;;;36.58;27.83;;;;;;;;;;5112117;28;20512;-77
2023/09/27 05:01:27;;;;;;;33.85;26.75;;;;;;;;;;5100945;28;20048;-78
2023/09/27 05:03:53;;;;;;;35.60;27.73;;;;;;;;;;5113311;28;20054;-78
2023/09/27 05:06:20;;;;;;;38.78;29.80;;;;;;;;;;5113615;28;20040;-78
2023/09/27 05:08:46;;;;;;;36.97;28.63;;;;;;;;;;5113201;28;20075;-77
2023/09/27 05:11:12;;;;;;;35.13;28.23;;;;;;;;;;5113355;28;20040;-78
2023/09/27 05:13:38;;;;;;;37.55;28.83;;;;;;;;;;5113203;28;20046;-77
2023/09/27 05:16:04;;;;;;;36.53;29.58;;;;;;;;;;5113604;28;20044;-78
2023/09/27 05:18:30;;;;;;;40.08;28.02;;;;;;;;;;5098689;28;20103;-77
2023/09/27 05:20:56;;;;;;;35.58;28.20;;;;;;;;;;5113177;28;20040;-77
2023/09/27 05:23:22;;;;;;;36.03;28.95;;;;;;;;;;5112809;28;20430;-77
2023/09/27 05:25:48;;;;;;;37.78;29.70;;;;;;;;;;5113174;28;20039;-78
2023/09/27 05:28:15;;;;;;;34.72;28.77;;;;;;;;;;5112749;28;20096;-78
2023/09/27 05:30:42;;;;;;;38.30;29.75;;;;;;;;;;5112950;28;20127;-78
2023/09/27 05:33:08;;;;;;;38.88;30.17;;;;;;;;;;5112905;28;20036;-77
2023/09/27 05:35:34;;;;;;;37.25;28.35;;;;;;;;;;5113284;28;20044;-78
2023/09/27 05:38:00;;;;;;;35.90;27.92;;;;;;;;;;5111210;28;20123;-77
2023/09/27 05:40:26;;;;;;;36.05;28.42;;;;;;;;;;5112952;28;20097;-78
2023/09/27 05:42:52;;;;;;;36.60;28.88;;;;;;;;;;5112870;28;20152;-77
2023/09/27 05:45:18;;;;;;;36.55;28.98;;;;;;;;;;5112648;28;20495;-78
2023/09/27 05:47:44;;;;;;;37.38;29.38;;;;;;;;;;5112811;28;20047;-78
2023/09/27 05:50:12;;;;;;;39.33;28.73;;;;;;;;;;5112830;28;20088;-78
2023/09/27 05:52:39;;;;;;;38.15;28.75;;;;;;;;;;5112919;28;20047;-78
2023/09/27 05:55:05;;;;;;;36.28;28.70;;;;;;;;;;5112629;28;20119;-77
2023/09/27 05:57:32;;;;;;;37.60;29.15;;;;;;;;;;5111419;28;20480;-78
2023/09/27 05:59:58;;;;;;;40.60;29.63;;;;;;;;;;5112593;28;20137;-78
2023/09/27 06:02:30;;;;;;;40.00;29.80;;;;;;;;;;5112843;28;20556;-77
2023/09/27 06:04:57;;;;;;;38.90;30.45;;;;;;;;;;5111082;28;20051;-78
2023/09/27 06:07:23;;;;;;;40.17;30.15;;;;;;;;;;5112960;28;20066;-77
2023/09/27 06:09:50;;;;;;;42.15;30.83;;;;;;;;;;5112447;28;20461;-78
2023/09/27 06:12:16;;;;;;;40.20;30.23;;;;;;;;;;5112635;28;20048;-78
2023/09/27 06:14:43;;;;;;;37.35;29.92;;;;;;;;;;5094364;28;20109;-78
2023/09/27 06:17:10;;;;;;;39.03;29.85;;;;;;;;;;5112787;28;20047;-78
2023/09/27 06:19:37;;;;;;;40.05;31.00;;;;;;;;;;5112926;28;20047;-77
2023/09/27 06:22:06;;;;;;;36.55;30.35;;;;;;;;;;5112117;28;20157;-78
2023/09/27 06:24:32;;;;;;;43.30;32.25;;;;;;;;;;5112833;28;20134;-78
2023/09/27 06:26:59;;;;;;;38.55;30.13;;;;;;;;;;5112633;28;20036;-77
2023/09/27 06:29:25;;;;;;;41.95;31.77;;;;;;;;;;5112480;28;20122;-78
2023/09/27 06:31:52;;;;;;;40.25;30.55;;;;;;;;;;5116129;28;20078;-78
2023/09/27 06:34:18;;;;;;;44.35;31.23;;;;;;;;;;5116417;28;20036;-78
2023/09/27 06:36:48;;;;;;;42.05;32.17;;;;;;;;;;5116311;28;20044;-78
2023/09/27 06:39:19;;;;;;;42.30;30.80;;;;;;;;;;5115992;27;20066;-78
2023/09/27 06:41:46;;;;;;;38.10;30.05;;;;;;;;;;5116173;28;20122;-78
2023/09/27 06:44:12;;;;;;;40.25;30.98;;;;;;;;;;5116698;28;20040;-77
2023/09/27 06:46:38;;;;;;;39.65;30.83;;;;;;;;;;5116108;28;20040;-78
2023/09/27 06:49:04;;;;;;;40.00;29.98;;;;;;;;;;5116199;28;20073;-78
2023/09/27 06:51:31;;;;;;;37.70;29.10;;;;;;;;;;5115994;28;20479;-78
2023/09/27 06:53:57;;;;;;;39.55;30.00;;;;;;;;;;5116143;28;20100;-78
2023/09/27 06:56:24;;;;;;;38.88;30.60;;;;;;;;;;5115710;28;20057;-78
2023/09/27 06:58:51;;;;;;;36.90;29.27;;;;;;;;;;5115558;28;20059;-78
2023/09/27 07:01:17;;;;;;;37.63;29.77;;;;;;;;;;5115702;28;20127;-78
2023/09/27 07:03:43;;;;;;;40.15;29.83;;;;;;;;;;5115459;28;20055;-78
2023/09/27 07:06:09;;;;;;;37.45;28.73;;;;;;;;;;5115582;28;20046;-78
2023/09/27 07:08:35;;;;;;;38.00;29.02;;;;;;;;;;5115715;27;20505;-78
2023/09/27 07:11:05;;;;;;;39.03;28.98;;;;;;;;;;5115383;28;20039;-78
2023/09/27 07:13:32;;;;;;;36.22;28.30;;;;;;;;;;5115431;28;20048;-78
2023/09/27 07:15:59;;;;;;;37.33;29.40;;;;;;;;;;5102278;28;20050;-77
2023/09/27 07:18:25;;;;;;;39.80;29.45;;;;;;;;;;5114054;28;20580;-78
2023/09/27 07:20:51;;;;;;;39.78;28.05;;;;;;;;;;5115329;28;20096;-78
2023/09/27 07:23:17;;;;;;;38.00;28.35;;;;;;;;;;5115343;28;20067;-78
2023/09/27 07:25:44;;;;;;;38.17;28.33;;;;;;;;;;5115612;28;20126;-78
2023/09/27 07:28:11;;;;;;;36.38;27.83;;;;;;;;;;5115195;28;20055;-78
2023/09/27 07:30:37;;;;;;;37.67;27.98;;;;;;;;;;5115247;28;20039;-77
2023/09/27 07:33:08;;;;;;;37.20;29.48;;;;;;;;;;5115229;28;20043;-77
2023/09/27 07:35:35;;;;;;;35.33;28.10;;;;;;;;;;5101128;28;20047;-78
2023/09/27 07:38:01;;;;;;;35.88;27.40;;;;;;;;;;5114811;28;20126;-78
2023/09/27 07:40:27;;;;;;;34.38;27.08;;;;;;;;;;5112991;28;20112;-78
2023/09/27 07:42:54;;;;;;;33.50;27.48;;;;;;;;;;5114898;28;20051;-78
2023/09/27 07:45:21;;;;;;;34.67;26.52;;;;;;;;;;5115087;28;20055;-78
2023/09/27 07:47:50;;;;;;;35.80;26.33;;;;;;;;;;5114605;28;20123;-78
2023/09/27 07:50:17;;;;;;;36.13;26.55;;;;;;;;;;5115130;28;20043;-78
2023/09/27 07:52:44;;;;;;;32.88;25.42;;;;;;;;;;5114643;28;20544;-78
2023/09/27 07:55:12;;;;;;;39.47;26.50;;;;;;;;;;5114842;28;20035;-78
2023/09/27 07:57:38;;;;;;;34.75;25.73;;;;;;;;;;5114780;28;20047;-78
2023/09/27 08:00:11;;;;;;;31.83;25.38;;;;;;;;;;5114629;28;20054;-78
2023/09/27 08:02:38;;;;;;;35.40;24.90;;;;;;;;;;5114781;28;20051;-78
2023/09/27 08:05:09;;;;;;;32.88;24.42;;;;;;;;;;5102992;28;20423;-78
2023/09/27 08:07:36;;;;;;;33.53;24.80;;;;;;;;;;5110523;28;20048;-78
2023/09/27 08:10:02;;;;;;;33.78;24.00;;;;;;;;;;5114203;28;20407;-78
2023/09/27 08:12:31;;;;;;;31.65;25.35;;;;;;;;;;5110146;28;20076;-78
2023/09/27 08:14:58;;;;;;;30.05;22.70;;;;;;;;;;5105517;28;20051;-78
2023/09/27 08:17:24;;;;;;;32.67;23.45;;;;;;;;;;5109845;28;20116;-78
2023/09/27 08:19:50;;;;;;;30.55;22.00;;;;;;;;;;5105480;28;20044;-78
2023/09/27 08:22:16;;;;;;;29.58;21.13;;;;;;;;;;5114546;28;20042;-78
2023/09/27 08:24:42;;;;;;;28.63;21.25;;;;;;;;;;5114334;28;20036;-78
2023/09/27 08:27:08;;;;;;;29.73;21.88;;;;;;;;;;5114095;28;20130;-78
2023/09/27 08:29:34;;;;;;;30.20;22.15;;;;;;;;;;5105542;28;20492;-78
2023/09/27 08:32:01;;;;;;;28.10;20.83;;;;;;;;;;5113994;28;20118;-78
2023/09/27 08:34:27;;;;;;;26.85;21.85;;;;;;;;;;5114091;28;20039;-78
2023/09/27 08:36:54;;;;;;;29.80;20.83;;;;;;;;;;5113949;28;20043;-78
2023/09/27 08:39:20;;;;;;;26.92;19.80;;;;;;;;;;5113420;28;20064;-78
2023/09/27 08:41:46;;;;;;;29.27;19.85;;;;;;;;;;5113757;28;20051;-78
2023/09/27 08:44:13;;;;;;;31.95;20.50;;;;;;;;;;5113360;28;20093;-78
2023/09/27 08:46:40;;;;;;;27.95;20.65;;;;;;;;;;5108455;28;20506;-78
2023/09/27 08:49:08;;;;;;;26.48;19.45;;;;;;;;;;5105056;28;20051;-78
2023/09/27 08:51:35;;;;;;;31.10;20.52;;;;;;;;;;5113694;28;20075;-78
2023/09/27 08:54:02;;;;;;;26.20;20.08;;;;;;;;;;5112698;28;20111;-78
2023/09/27 08:56:28;;;;;;;24.58;18.50;;;;;;;;;;5113488;28;20035;-78
2023/09/27 08:58:54;;;;;;;24.15;18.67;;;;;;;;;;5100768;28;20067;-78
2023/09/27 09:01:21;;;;;;;31.40;19.67;;;;;;;;;;5112423;28;20054;-78
2023/09/27 09:03:47;;;;;;;23.08;18.48;;;;;;;;;;5111764;28;20044;-78
2023/09/27 09:06:14;;;;;;;26.40;19.73;;;;;;;;;;5113078;28;20544;-78
2023/09/27 09:08:40;;;;;;;27.35;20.55;;;;;;;;;;5113509;28;20036;-78
2023/09/27 09:11:09;;;;;;;26.95;20.15;;;;;;;;;;5111938;28;20507;-78
2023/09/27 09:13:55;;;;;;;22.30;18.75;;;;;;;;;;5113312;28;20043;-78
2023/09/27 09:16:23;;;;;;;25.85;18.58;;;;;;;;;;5113225;28;20047;-78
2023/09/27 09:18:52;;;;;;;22.58;16.73;;;;;;;;;;5096526;28;20553;-78
2023/09/27 09:21:19;;;;;;;25.10;16.42;;;;;;;;;;5103268;28;20557;-78
2023/09/27 09:23:49;;;;;;;25.42;17.85;;;;;;;;;;5113158;28;20042;-78
2023/09/27 09:26:26;;;;;;;23.27;16.35;;;;;;;;;;5113420;28;20146;-78
2023/09/27 09:28:56;;;;;;;28.55;19.65;;;;;;;;;;5113217;28;20054;-78
2023/09/27 09:31:26;;;;;;;28.08;18.20;;;;;;;;;;5112982;28;20062;-78
2023/09/27 09:34:05;;;;;;;25.98;17.73;;;;;;;;;;5099561;28;20082;-78
2023/09/27 09:36:32;;;;;;;26.00;17.70;;;;;;;;;;5112919;28;20085;-78
2023/09/27 09:39:14;;;;;;;24.73;17.73;;;;;;;;;;5111529;28;20055;-78
2023/09/27 09:41:51;;;;;;;23.35;17.15;;;;;;;;;;5108246;28;20400;-78
2023/09/27 09:44:22;;;;;;;25.08;17.70;;;;;;;;;;5105541;28;20055;-78
2023/09/27 09:46:49;;;;;;;24.58;16.88;;;;;;;;;;5112725;28;20035;-78
2023/09/27 09:49:15;;;;;;;21.95;16.60;;;;;;;;;;5112700;28;20148;-78
2023/09/27 09:51:46;;;;;;;24.40;16.65;;;;;;;;;;5111627;28;20072;-78
2023/09/27 09:54:13;;;;;;;22.90;15.23;;;;;;;;;;5112292;28;20043;-78
2023/09/27 09:56:40;;;;;;;24.55;16.05;;;;;;;;;;5100373;28;20040;-78
2023/09/27 09:59:09;;;;;;;20.08;14.93;;;;;;;;;;5112535;28;20527;-78
2023/09/27 10:01:39;;;;;;;22.90;15.52;;;;;;;;;;5112744;28;20047;-78
2023/09/27 10:04:05;;;;;;;22.65;16.65;;;;;;;;;;5112968;28;20058;-78
2023/09/27 10:06:32;;;;;;;22.60;16.85;;;;;;;;;;5116879;28;20051;-78
2023/09/27 10:09:01;;;;;;;25.02;16.92;;;;;;;;;;5116589;28;20056;-78
2023/09/27 10:11:27;;;;;;;23.80;15.75;;;;;;;;;;5117165;27;20057;-78
2023/09/27 10:13:54;;;;;;;22.73;15.07;;;;;;;;;;5130533;27;20043;-78
2023/09/27 10:16:23;;;;;;;25.73;15.00;;;;;;;;;;5116495;28;20036;-78
2023/09/27 10:18:49;;;;;;;24.50;14.80;;;;;;;;;;5116411;28;20053;-78
2023/09/27 10:21:15;;;;;;;18.00;13.40;;;;;;;;;;5116730;28;20040;-78
2023/09/27 10:23:52;;;;;;;22.00;13.02;;;;;;;;;;5116808;27;20040;-78
2023/09/27 10:26:19;;;;;;;23.33;13.48;;;;;;;;;;5116606;28;20031;-78
2023/09/27 10:29:04;;;;;;;20.70;13.48;;;;;;;;;;5116077;28;20093;-78
2023/09/27 10:31:36;;;;;;;20.58;13.80;;;;;;;;;;5115351;28;20051;-78
2023/09/27 10:34:02;;;;;;;22.02;13.70;;;;;;;;;;5116292;28;20052;-78
2023/09/27 10:36:29;;;;;;;24.00;14.57;;;;;;;;;;5116043;28;20407;-78
2023/09/27 10:38:55;;;;;;;23.38;15.55;;;;;;;;;;5115874;28;20040;-78
2023/09/27 10:41:42;;;;;;;21.45;14.45;;;;;;;;;;5102432;28;20059;-78
2023/09/27 10:44:08;;;;;;;23.63;14.45;;;;;;;;;;5103322;28;20484;-78
2023/09/27 10:46:45;;;;;;;21.73;13.30;;;;;;;;;;5113821;28;20092;-78
2023/09/27 10:49:11;;;;;;;19.15;13.35;;;;;;;;;;5115001;28;20101;-78
2023/09/27 10:51:37;;;;;;;18.10;12.10;;;;;;;;;;5116040;28;20114;-78
2023/09/27 10:54:08;;;;;;;16.92;10.73;;;;;;;;;;5115755;28;20479;-78
2023/09/27 10:56:34;;;;;;;15.25;10.05;;;;;;;;;;5116108;28;20043;-78
2023/09/27 10:59:00;;;;;;;15.32;9.70;;;;;;;;;;5115863;28;20047;-78
2023/09/27 11:01:26;;;;;;;15.88;9.25;;;;;;;;;;5115923;28;20047;-78
2023/09/27 11:03:58;;;;;;;13.40;9.32;;;;;;;;;;5114601;28;20096;-78
2023/09/27 11:06:24;;;;;;;12.70;8.65;;;;;;;;;;5116042;28;20043;-78
2023/09/27 11:08:51;;;;;;;11.95;9.23;;;;;;;;;;5115839;28;20443;-78
2023/09/27 11:11:17;;;;;;;15.43;9.05;;;;;;;;;;5115894;28;20040;-78
2023/09/27 11:13:46;;;;;;;14.77;8.88;;;;;;;;;;5115798;28;20048;-78
2023/09/27 11:16:18;;;;;;;14.18;9.05;;;;;;;;;;5114819;28;20046;-78
2023/09/27 11:18:56;;;;;;;15.75;9.07;;;;;;;;;;5115790;28;20051;-78
2023/09/27 11:21:28;;;;;;;13.25;8.65;;;;;;;;;;5115511;28;20043;-78
2023/09/27 11:24:06;;;;;;;13.32;8.73;;;;;;;;;;5115399;28;20051;-78
2023/09/27 11:26:33;;;;;;;13.18;9.73;;;;;;;;;;5101730;28;20040;-78
2023/09/27 11:28:59;;;;;;;16.80;10.40;;;;;;;;;;5115219;28;20036;-78
2023/09/27 11:31:27;;;;;;;17.65;10.85;;;;;;;;;;5115297;28;20074;-78
2023/09/27 11:33:53;;;;;;;20.80;11.68;;;;;;;;;;5102341;28;20111;-78
2023/09/27 11:36:19;;;;;;;18.02;10.95;;;;;;;;;;5114926;28;20051;-78
2023/09/27 11:38:50;;;;;;;17.30;11.77;;;;;;;;;;5101640;28;20052;-78
2023/09/27 11:41:16;;;;;;;15.88;11.70;;;;;;;;;;5114871;28;20043;-78
2023/09/27 11:43:44;;;;;;;15.32;12.20;;;;;;;;;;5107041;28;20044;-78
2023/09/27 11:46:10;;;;;;;17.52;12.70;;;;;;;;;;5108326;28;20043;-78
2023/09/27 11:48:36;;;;;;;15.50;11.88;;;;;;;;;;5115232;28;20040;-78
2023/09/27 11:51:02;;;;;;;16.85;11.02;;;;;;;;;;5114711;28;20062;-78
2023/09/27 11:53:28;;;;;;;16.00;11.75;;;;;;;;;;5115004;28;20047;-78
2023/09/27 11:55:59;;;;;;;14.85;10.82;;;;;;;;;;5113655;28;20057;-78
2023/09/27 11:58:26;;;;;;;17.20;11.50;;;;;;;;;;5094376;28;20083;-78
2023/09/27 12:00:52;;;;;;;14.05;10.77;;;;;;;;;;5108079;27;20096;-78
2023/09/27 12:03:18;;;;;;;15.88;11.23;;;;;;;;;;5103261;28;20031;-78
2023/09/27 12:05:44;;;;;;;14.73;10.18;;;;;;;;;;5114115;28;20403;-78
2023/09/27 12:08:10;;;;;;;16.20;10.48;;;;;;;;;;5114339;28;20054;-78
2023/09/27 12:10:36;;;;;;;14.85;10.45;;;;;;;;;;5113730;28;20398;-78
2023/09/27 12:13:03;;;;;;;14.27;10.38;;;;;;;;;;5113719;28;20475;-78
2023/09/27 12:15:29;;;;;;;13.63;10.63;;;;;;;;;;5114245;28;20044;-78
2023/09/27 12:17:55;;;;;;;12.65;8.70;;;;;;;;;;5114165;27;20047;-78
2023/09/27 12:20:21;;;;;;;15.93;9.55;;;;;;;;;;5111996;28;20047;-78
2023/09/27 12:22:48;;;;;;;14.38;8.82;;;;;;;;;;5102572;28;20047;-78
2023/09/27 12:25:14;;;;;;;14.63;9.45;;;;;;;;;;5100677;28;20055;-78
2023/09/27 12:27:40;;;;;;;12.10;8.68;;;;;;;;;;5114100;28;20123;-78
2023/09/27 12:30:07;;;;;;;12.32;8.65;;;;;;;;;;5113980;28;20118;-78
2023/09/27 12:32:33;;;;;;;12.55;8.40;;;;;;;;;;5113946;28;20068;-78
2023/09/27 12:34:59;;;;;;;13.25;8.32;;;;;;;;;;5113788;28;20050;-78
2023/09/27 12:37:25;;;;;;;10.60;6.68;;;;;;;;;;5113885;28;20396;-78
2023/09/27 12:39:51;;;;;;;11.75;7.50;;;;;;;;;;5113158;28;20062;-78
2023/09/27 12:42:17;;;;;;;14.52;7.00;;;;;;;;;;5113659;28;20503;-78
2023/09/27 12:44:43;;;;;;;10.48;6.95;;;;;;;;;;5111279;28;20071;-78
2023/09/27 12:47:09;;;;;;;17.33;7.15;;;;;;;;;;5102801;28;20385;-78
2023/09/27 12:49:36;;;;;;;10.02;6.53;;;;;;;;;;5113562;28;20055;-78
2023/09/27 12:52:02;;;;;;;11.55;7.00;;;;;;;;;;5113758;28;20046;-78
2023/09/27 12:54:28;;;;;;;10.63;6.78;;;;;;;;;;5111189;28;20139;-78
2023/09/27 12:56:56;;;;;;;13.60;6.65;;;;;;;;;;5102669;28;20066;-78
2023/09/27 12:59:23;;;;;;;9.05;5.75;;;;;;;;;;5113387;28;20048;-78
2023/09/27 13:01:49;;;;;;;9.02;5.72;;;;;;;;;;5113977;28;20142;-78
2023/09/27 13:04:15;;;;;;;8.70;5.60;;;;;;;;;;5110183;28;20055;-78
2023/09/27 13:06:41;;;;;;;11.18;6.03;;;;;;;;;;5103031;28;20043;-78
2023/09/27 13:09:07;;;;;;;8.60;5.80;;;;;;;;;;5110423;28;20090;-78
2023/09/27 13:11:33;;;;;;;6.78;4.65;;;;;;;;;;5103130;28;20039;-78
2023/09/27 13:13:59;;;;;;;7.28;4.80;;;;;;;;;;5113549;28;20050;-78
2023/09/27 13:16:26;;;;;;;9.95;5.10;;;;;;;;;;5103826;28;20050;-78
2023/09/27 13:18:52;;;;;;;9.63;4.80;;;;;;;;;;5106686;28;20048;-78
2023/09/27 13:21:18;;;;;;;9.18;4.90;;;;;;;;;;5103177;28;20431;-78
2023/09/27 13:23:45;;;;;;;8.30;5.00;;;;;;;;;;5099547;28;20111;-78
2023/09/27 13:26:11;;;;;;;9.48;4.95;;;;;;;;;;5113315;28;20054;-78
2023/09/27 13:28:37;;;;;;;7.07;4.43;;;;;;;;;;5112979;28;20055;-78
2023/09/27 13:31:03;;;;;;;8.40;4.60;;;;;;;;;;5113268;28;20066;-78
2023/09/27 13:33:29;;;;;;;5.85;4.22;;;;;;;;;;5108899;28;20381;-78
2023/09/27 13:35:58;;;;;;;7.10;4.40;;;;;;;;;;5103477;28;20082;-78
2023/09/27 13:38:25;;;;;;;8.32;4.47;;;;;;;;;;5112550;28;20044;-78
2023/09/27 13:40:51;;;;;;;8.15;4.90;;;;;;;;;;5101559;28;20044;-77
2023/09/27 13:43:17;;;;;;;10.88;4.90;;;;;;;;;;5110886;28;20039;-78
2023/09/27 13:45:43;;;;;;;9.80;4.50;;;;;;;;;;5112878;28;20062;-78
2023/09/27 13:48:09;;;;;;;8.73;4.68;;;;;;;;;;5112984;28;20047;-78
2023/09/27 13:50:35;;;;;;;7.50;5.03;;;;;;;;;;5113186;28;20097;-78
2023/09/27 13:53:02;;;;;;;6.35;4.50;;;;;;;;;;5112794;28;20047;-78
2023/09/27 13:55:28;;;;;;;7.70;4.00;;;;;;;;;;5113038;28;20071;-78
2023/09/27 13:57:55;;;;;;;6.93;3.83;;;;;;;;;;5112819;28;20073;-78
2023/09/27 14:00:22;;;;;;;8.32;4.05;;;;;;;;;;5099874;28;20500;-78
2023/09/27 14:02:48;;;;;;;5.28;3.70;;;;;;;;;;5098480;28;20043;-78
2023/09/27 14:05:14;;;;;;;5.32;3.80;;;;;;;;;;5113158;28;20043;-78
2023/09/27 14:07:42;;;;;;;7.57;4.10;;;;;;;;;;5105547;28;20058;-78
2023/09/27 14:10:08;;;;;;;7.22;4.10;;;;;;;;;;5105202;28;20474;-78
2023/09/27 14:12:34;;;;;;;7.35;4.45;;;;;;;;;;5112876;28;20081;-78
2023/09/27 14:15:01;;;;;;;7.40;4.20;;;;;;;;;;5099693;28;20059;-78
2023/09/27 14:17:27;;;;;;;6.90;4.43;;;;;;;;;;5105816;28;20044;-78
2023/09/27 14:19:55;;;;;;;6.28;4.53;;;;;;;;;;5105389;28;20039;-78